Terminal Aerodrome Forecast
Issued by NWS Glasgow, MT

Home | Current Version | Previous Version | Text Only | Print | Product List | Glossary On
Versions: 1 2 3 4 5 6 7 8 9 10 11 12 13 14
000
FTUS45 KGGW 231000 AAB
TAFGGW
TAF AMD
KGGW 231008Z 2310/2406 VRB05KT P6SM SCT050 BKN090
     FM231200 26011KT P6SM -SHRA SCT025 OVC045
     FM231600 28023G31KT P6SM VCSH SCT030 OVC060
     FM240000 27018KT P6SM BKN250=

USA.gov is the U.S. government's official web portal to all federal, state and local government web resources and services.